Latest Coastal Weather Observations for Darwin Airport

IDD60701

Issued at 2:51 am CST Sunday 1 March 2015 (issued every 10 minutes, with the page automatically refreshed every 10 minutes)

About coastal observations | Map of coastal stations | Coastal observations for NT | Marine services | Other Formats
Station Details ID: 014015 Name: DARWIN AIRPORT Lat: -12.42 Lon: 130.89 Height: 30.4 m
Data from the previous 72 hours. | See also: Recent months at Darwin Airport
Date/Time
CST
Temp

°C
Wind Pressure Rain
since 9am
mm
Weather Cloud Vis
km
Sea
Height
m
Swell
Dir
 
Speed
knots
Gust
knots
hPa Trend Height
m
Period
s
Dir
01/02:30am 27.8 W 7 10 1006.0 - 0.0 - Mostly clear 10 - - - -
01/02:00am 28.0 W 6 8 1006.5 - 0.0 - Mostly clear 10 - - - -
01/01:30am 28.1 W 8 10 1006.8 - 0.0 - Mostly clear 10 - - - -
01/01:00am 28.1 W 7 9 1006.9 - 0.0 - Partly cloudy 10 - - - -
01/12:30am 28.0 W 7 10 1007.1 - 0.0 - Mostly clear 10 - - - -
01/12:00am 28.4 W 8 11 1008.0 R 0.0 Fine Mostly clear 10 - - - -
 
Date/Time
CST
Temp

°C
Wind Pressure Rain
since 9am
mm
Weather Cloud Vis
km
Sea
Height
m
Swell
Dir
 
Speed
knots
Gust
knots
hPa Trend Height
m
Period
s
Dir
28/11:30pm 28.5 W 9 13 1008.2 - 0.0 - Mostly clear 10 - - - -
28/11:00pm 28.2 W 8 10 1008.2 - 0.0 - Mostly clear 10 - - - -
28/10:30pm 28.3 WNW 7 9 1008.3 - 0.0 - Mostly clear 10 - - - -
28/10:00pm 28.5 W 8 10 1008.2 - 0.0 - Mostly clear 10 - - - -
28/09:30pm 28.6 W 9 11 1007.8 - 0.0 - Mostly clear 10 - - - -
28/09:00pm 27.7 W 9 11 1006.4 F 0.0 Fine Mostly cloudy 30 - - - -
28/08:30pm 26.9 NW 5 6 1006.0 - 0.0 - Mostly clear 10 - - - -
28/08:00pm 26.7 NE 1 4 1005.6 - 0.0 - Mostly clear 10 - - - -
28/07:30pm 26.8 E 4 7 1005.6 - 0.0 - Mostly clear 10 - - - -
28/07:00pm 27.0 SSE 3 5 1005.5 - 0.0 - Mostly clear 10 - - - -
28/06:30pm 27.6 SSW 5 7 1005.9 - 0.0 - Mostly clear 10 - - - -
28/06:00pm 27.3 SSW 16 21 1005.0 R 0.0 Distant precip. Mostly cloudy 20 - - - -
28/05:30pm 30.7 WNW 16 19 1005.1 - 0.0 - Mostly clear 10 - - - -
28/05:00pm 30.4 WNW 17 20 1005.0 - 0.0 - Partly cloudy 10 - - - -
28/04:30pm 30.9 W 15 18 1005.2 - 0.0 - Partly cloudy 10 - - - -
28/04:00pm 30.8 WNW 17 21 1005.1 - 0.0 - Partly cloudy 10 - - - -
28/03:30pm 30.9 WNW 16 20 1005.1 - 0.0 - Mostly clear 10 - - - -
28/03:00pm 30.9 WNW 15 19 1005.1 F 0.0 Fine Mostly cloudy 30 - - - -
28/02:30pm 31.3 WNW 17 20 1005.9 - 0.0 - Mostly clear 10 - - - -
28/02:00pm 31.5 WNW 15 18 1006.4 - 0.0 - Mostly clear 10 - - - -
28/01:30pm 31.5 WNW 17 20 1006.8 - 0.0 - Partly cloudy 10 - - - -
28/01:00pm 30.6 WNW 15 20 1007.1 - 0.0 - Partly cloudy 10 - - - -
28/12:30pm 31.0 WNW 15 18 1007.6 - 0.0 - Partly cloudy 10 - - - -
28/12:00pm 30.5 WNW 15 18 1007.6 R 0.0 Fine Mostly cloudy 30 - - - -
28/11:30am 30.6 W 12 16 1008.1 - 0.0 - Partly cloudy 10 - - - -
28/11:00am 29.6 W 8 10 1008.3 - 0.0 - Mostly clear 10 - - - -
28/10:30am 28.7 W 7 10 1008.5 - 0.0 - Mostly clear 10 - - - -
28/10:00am 28.3 W 8 9 1008.5 - 0.0 - Mostly clear 10 - - - -
28/09:30am 27.3 WSW 5 7 1008.2 - 0.0 - Mostly clear 10 - - - -
28/09:00am 26.9 SW 4 5 1007.5 F 68.8 Fine Mostly cloudy 30 - - - -
28/08:30am 26.4 SSW 6 7 1007.4 - 68.8 - - 10 - - - -
28/08:00am 25.7 SSW 7 8 1007.0 - 68.8 - - 10 - - - -
28/07:30am 24.8 SSW 5 7 1006.9 - 68.8 - Mostly clear 10 - - - -
28/07:00am 24.3 SSW 8 10 1006.9 - 68.8 - Mostly clear 10 - - - -
28/06:30am 24.1 SSW 10 13 1006.8 - 68.8 - Mostly clear 10 - - - -
28/06:00am 23.6 SSW 8 10 1006.2 F 68.8 Lightning Mostly cloudy 30 - - - -
28/05:30am 23.7 W 10 13 1006.9 - 68.8 - Mostly clear 10 - - - -
28/05:00am 23.4 W 10 14 1007.1 - 68.8 - Partly cloudy 10 - - - -
28/04:30am 23.8 NW 9 13 1006.4 - 68.6 Showers Mostly clear 8 - - - -
28/04:00am 23.3 W 13 17 1007.4 - 59.6 Showers Partly cloudy 5 - - - -
28/03:47am 23.9 W 16 20 1007.5 - 56.0 Showers Partly cloudy 6 - - - -
28/03:30am 24.6 W 17 20 1007.2 - 54.6 Showers Mostly clear 8 - - - -
28/03:18am 23.6 WNW 16 23 1006.9 - 54.0 Showers Mostly clear 3 - - - -
28/03:00am 24.6 WSW 7 12 1007.2 R 34.8 Thunderstorm Cloudy 1 - - - -
28/02:39am 25.3 ENE 12 16 1007.7 - 16.0 Thunderstorm Partly cloudy 0.8 - - - -
28/02:30am 25.5 WSW 9 14 1007.8 - 4.8 Thunderstorm Mostly clear 2 - - - -
28/02:28am 25.6 W 8 11 1007.6 - 4.0 Thunderstorm Mostly clear 2 - - - -
28/02:00am 28.0 NW 12 16 1007.3 - 4.0 - Partly cloudy 10 - - - -
28/01:30am 27.9 WNW 14 17 1007.3 - 4.0 - Mostly clear 10 - - - -
28/01:00am 27.9 WNW 10 13 1007.7 - 4.0 - Mostly clear 10 - - - -
28/12:30am 27.8 WNW 12 15 1008.0 - 4.0 - Mostly clear 10 - - - -
28/12:00am 27.6 W 7 9 1008.2 S 4.0 Rain Mostly cloudy 20 - - - -
 
Date/Time
CST
Temp

°C
Wind Pressure Rain
since 9am
mm
Weather Cloud Vis
km
Sea
Height
m
Swell
Dir
 
Speed
knots
Gust
knots
hPa Trend Height
m
Period
s
Dir
27/11:30pm 27.4 W 7 10 1008.6 - 4.0 Rain Mostly clear 10 - - - -
27/11:00pm 27.6 W 8 10 1009.2 - 4.0 Rain Mostly clear 10 - - - -
27/10:30pm 27.6 WNW 9 11 1009.1 - 3.8 Rain Mostly clear 10 - - - -
27/10:00pm 27.6 WNW 5 7 1009.2 - 3.6 Rain Mostly clear 10 - - - -
27/09:30pm 28.0 WNW 8 10 1008.7 - 3.4 - Mostly clear 10 - - - -
27/09:00pm 27.7 WNW 7 8 1007.7 R 3.4 Fine Mostly cloudy 30 - - - -
27/08:30pm 27.8 W 7 9 1007.5 - 3.4 - Mostly clear 10 - - - -
27/08:00pm 27.7 W 7 9 1007.3 - 3.4 - Mostly clear 10 - - - -
27/07:30pm 27.7 WNW 9 11 1006.9 - 3.4 - Mostly clear 10 - - - -
27/07:00pm 27.5 WNW 6 8 1006.7 - 3.4 - Mostly clear 10 - - - -
27/06:30pm 27.2 W 7 8 1005.8 - 3.4 - Mostly clear 10 - - - -
27/06:00pm 27.5 W 7 9 1005.7 R 3.4 Fine Cloudy 30 - - - -
27/05:30pm 27.2 W 8 12 1005.1 - 3.4 - Mostly clear 10 - - - -
27/05:00pm 26.8 NW 5 6 1005.1 - 3.4 Rain Mostly clear 10 - - - -
27/04:30pm 26.5 SW 1 4 1004.9 - 3.0 Rain Mostly clear 10 - - - -
27/04:00pm 25.5 E 1 5 1004.9 - 2.8 Rain Mostly clear 10 - - - -
27/03:38pm 25.3 SE 10 16 1005.6 - 2.6 Showers Mostly clear 10 - - - -
27/03:30pm 25.2 SSE 11 16 1005.8 - 2.4 Thunderstorm Mostly clear 9 - - - -
27/03:16pm 25.3 E 9 10 1006.0 - 1.6 Thunderstorm Mostly clear 9 - - - -
27/03:00pm 26.2 NW 8 11 1005.8 R 1.0 Thunderstorm Cloudy 5 - - - -
27/02:53pm 27.4 NW 7 9 1005.9 - 0.4 Thunder Mostly clear 6 - - - -
27/02:30pm 29.2 WNW 15 19 1005.3 - 0.2 Thunder Mostly clear 10 - - - -
27/02:00pm 30.1 WNW 16 19 1005.6 - 0.2 Showers Partly cloudy 10 - - - -
27/01:30pm 31.0 WNW 16 19 1006.0 - 0.2 - Mostly clear 10 - - - -
27/01:00pm 31.9 WNW 14 17 1006.5 - 0.2 - Mostly clear 10 - - - -
27/12:30pm 32.3 WNW 15 17 1007.3 - 0.2 - Mostly clear 10 - - - -
27/12:00pm 31.2 W 10 14 1007.5 S 0.2 Fine Mostly cloudy 30 - - - -
27/11:30am 30.4 W 10 15 1008.0 - 0.2 - Partly cloudy 10 - - - -
27/11:00am 30.5 WSW 7 10 1008.3 - 0.2 - Partly cloudy 10 - - - -
27/10:30am 30.1 W 7 9 1008.5 - 0.0 - Mostly clear 10 - - - -
27/10:00am 29.9 W 7 9 1008.3 - 0.0 - Mostly clear 10 - - - -
27/09:30am 29.4 W 6 9 1008.5 - 0.0 - Mostly clear 10 - - - -
27/09:00am 29.1 WSW 5 6 1007.9 R 1.6 Fine Mostly cloudy 30 - - - -
27/08:30am 28.2 W 4 5 1008.0 - 1.6 - Mostly clear 10 - - - -
27/08:00am 27.4 CALM 0 0 1007.6 - 1.6 - Mostly clear 10 - - - -
27/07:30am 26.7 CALM 0 0 1007.2 - 1.6 - Mostly clear 10 - - - -
27/07:00am 26.6 CALM 0 0 1006.8 - 1.6 - Mostly clear 10 - - - -
27/06:30am 27.3 WSW 5 7 1006.3 - 1.6 - Mostly clear 10 - - - -
27/06:00am 27.2 WSW 7 8 1005.9 F 1.6 Fine Cloudy 30 - - - -
27/05:30am 27.3 WSW 6 7 1005.8 - 1.6 - Mostly clear 10 - - - -
27/05:00am 27.2 W 7 8 1005.6 - 1.6 - Mostly clear 10 - - - -
27/04:30am 27.2 WSW 6 7 1005.7 - 1.6 - Mostly clear 10 - - - -
27/04:00am 27.1 W 5 6 1005.7 - 1.6 Rain Mostly clear 10 - - - -
27/03:30am 26.8 W 6 8 1006.0 - 1.4 Rain Mostly clear 10 - - - -
27/03:00am 27.1 WNW 6 7 1006.1 F 1.0 Rain Cloudy 20 - - - -
27/02:30am 27.3 WNW 8 10 1006.9 - 0.4 Rain Mostly clear 10 - - - -
27/02:00am 28.0 WNW 8 9 1007.2 - 0.0 Rain Mostly clear 10 - - - -
27/01:30am 28.4 WNW 7 7 1007.8 - 0.0 - Mostly clear 10 - - - -
27/01:00am 28.6 WNW 8 10 1008.0 - 0.0 Rain Mostly clear 10 - - - -
27/12:30am 28.5 NW 6 8 1008.5 - 0.0 Thunder Mostly clear 10 - - - -
27/12:00am 28.7 WNW 7 10 1008.6 R 0.0 Lightning Cloudy 30 - - - -
 
Date/Time
CST
Temp

°C
Wind Pressure Rain
since 9am
mm
Weather Cloud Vis
km
Sea
Height
m
Swell
Dir
 
Speed
knots
Gust
knots
hPa Trend Height
m
Period
s
Dir
26/11:30pm 28.7 WNW 10 13 1008.6 - 0.0 - Mostly clear 10 - - - -
26/11:00pm 28.7 WNW 9 10 1008.8 - 0.0 - Mostly clear 10 - - - -
26/10:30pm 28.9 WNW 11 14 1009.0 - 0.0 - Partly cloudy 10 - - - -
26/10:00pm 29.0 WNW 12 15 1008.4 - 0.0 - Mostly clear 10 - - - -
26/09:30pm 29.0 WNW 10 15 1007.7 - 0.0 - Mostly clear 10 - - - -
26/09:00pm 29.1 WNW 11 16 1007.4 R 0.0 Fine Cloudy 30 - - - -
26/08:30pm 28.9 WNW 11 16 1006.9 - 0.0 - Partly cloudy 10 - - - -
26/08:00pm 28.8 WNW 10 13 1006.6 - 0.0 - Mostly clear 10 - - - -
26/07:30pm 29.0 WNW 10 13 1006.5 - 0.0 - Mostly clear 10 - - - -
26/07:00pm 29.3 WNW 10 14 1006.6 - 0.0 - Mostly clear 10 - - - -
26/06:30pm 29.4 WNW 10 13 1006.2 - 0.0 Rain Mostly clear 10 - - - -
26/06:00pm 29.9 WNW 13 17 1005.4 R 0.0 Distant precip. Mostly cloudy 30 - - - -
26/05:30pm 29.8 WNW 12 16 1005.6 - 0.0 - Mostly clear 10 - - - -
26/05:00pm 30.0 WNW 13 16 1005.3 - 0.0 - Mostly clear 10 - - - -
26/04:30pm 30.2 WNW 15 18 1005.2 - 0.0 - Mostly clear 10 - - - -
26/04:00pm 30.3 WNW 15 18 1005.4 - 0.0 - Mostly clear 10 - - - -
26/03:30pm 30.5 WNW 14 18 1005.2 - 0.0 - Mostly clear 10 - - - -
26/03:00pm 30.7 WNW 13 16 1005.0 F 0.0 Fine Mostly cloudy 30 - - - -
26/02:30pm 31.0 WNW 14 17 1005.9 - 0.0 - Mostly clear 10 - - - -
26/02:00pm 31.1 WNW 14 18 1006.2 - 0.0 - Mostly clear 10 - - - -
26/01:30pm 30.9 WNW 12 15 1006.7 - 0.0 - Mostly clear 10 - - - -
26/01:00pm 31.6 WNW 11 15 1007.3 - 0.0 - Mostly clear 10 - - - -
26/12:30pm 31.5 NW 11 15 1007.7 - 0.0 - Mostly clear 10 - - - -
26/12:00pm 30.9 WNW 10 14 1008.0 F 0.0 Fine Mostly cloudy 30 - - - -
26/11:30am 30.8 WNW 9 12 1008.6 - 0.0 - Mostly clear 10 - - - -
26/11:00am 30.7 WNW 6 10 1008.7 - 0.0 - Mostly clear 10 - - - -
26/10:30am 30.3 W 6 9 1008.9 - 0.0 - Mostly clear 10 - - - -
26/10:00am 29.6 W 7 12 1009.1 - 0.0 - Mostly clear 10 - - - -
26/09:30am 28.9 WSW 5 7 1009.2 - 0.0 - Mostly clear 10 - - - -
26/09:00am 28.8 WSW 5 7 1009.1 R 0.2 Fine Mostly cloudy 30 - - - -
26/08:30am 28.0 SW 5 6 1009.1 - 0.2 - Mostly clear 10 - - - -
26/08:00am 26.8 SW 4 5 1008.6 - 0.2 - Mostly clear 10 - - - -
26/07:30am 25.4 WSW 4 5 1007.9 - 0.2 - Mostly clear 10 - - - -
26/07:00am 24.7 W 3 4 1007.8 - 0.2 - Mostly clear 10 - - - -
26/06:30am 24.6 CALM 0 0 1007.8 - 0.2 - Mostly clear 10 - - - -
26/06:00am 24.7 CALM 0 0 1007.4 F 0.2 Fine Partly cloudy 25 - - - -
26/05:30am 24.8 N 3 4 1007.4 - 0.2 - - 10 - - - -
26/05:00am 24.8 CALM 0 0 1007.2 - 0.2 - - 10 - - - -
26/04:30am 25.1 CALM 0 0 1007.2 - 0.2 - - 10 - - - -
26/04:00am 25.3 SSE 1 3 1007.3 - 0.2 - Mostly clear 10 - - - -
26/03:30am 25.7 SSE 5 5 1007.5 - 0.2 - Mostly clear 10 - - - -
26/03:00am 25.7 SSE 5 7 1007.3 R 0.2 Fine Partly cloudy 25 - - - -

Other Formats:

Comma delimited format used in spreadsheet applications
http://www.bom.gov.au/fwo/IDD60701/IDD60701.94120.axf

JavaScript Object Notation format (JSON) in row-major order
http://www.bom.gov.au/fwo/IDD60701/IDD60701.94120.json